sensor_id;sensor_type;location;lat;lon;timestamp;P1;durP1;ratioP1;P2;durP2;ratioP2
20144;SDS011;10233;50.814;6.590;2023-11-21T00:00:25;8.27;;;3.17;;
20144;SDS011;10233;50.814;6.590;2023-11-21T00:01:26;8.23;;;2.60;;
20144;SDS011;10233;50.814;6.590;2023-11-21T00:02:26;8.98;;;2.72;;
20144;SDS011;10233;50.814;6.590;2023-11-21T00:03:28;7.28;;;3.03;;
20144;SDS011;10233;50.814;6.590;2023-11-21T00:04:28;6.43;;;2.67;;
20144;SDS011;10233;50.814;6.590;2023-11-21T00:05:29;7.40;;;2.67;;
20144;SDS011;10233;50.814;6.590;2023-11-21T00:06:29;4.45;;;2.53;;
20144;SDS011;10233;50.814;6.590;2023-11-21T00:07:30;5.17;;;2.37;;
20144;SDS011;10233;50.814;6.590;2023-11-21T00:08:31;6.38;;;2.60;;
20144;SDS011;10233;50.814;6.590;2023-11-21T00:09:32;7.90;;;2.72;;
20144;SDS011;10233;50.814;6.590;2023-11-21T00:10:33;5.45;;;2.42;;
20144;SDS011;10233;50.814;6.590;2023-11-21T00:11:35;4.25;;;2.38;;
20144;SDS011;10233;50.814;6.590;2023-11-21T00:12:35;8.07;;;2.63;;
20144;SDS011;10233;50.814;6.590;2023-11-21T00:13:36;5.90;;;2.40;;
20144;SDS011;10233;50.814;6.590;2023-11-21T00:14:39;5.28;;;2.17;;
20144;SDS011;10233;50.814;6.590;2023-11-21T00:15:39;7.85;;;3.00;;
20144;SDS011;10233;50.814;6.590;2023-11-21T00:16:40;3.47;;;2.40;;
20144;SDS011;10233;50.814;6.590;2023-11-21T00:17:41;4.70;;;2.00;;
20144;SDS011;10233;50.814;6.590;2023-11-21T00:18:42;5.28;;;2.00;;
20144;SDS011;10233;50.814;6.590;2023-11-21T00:19:43;5.90;;;2.47;;
20144;SDS011;10233;50.814;6.590;2023-11-21T00:20:43;5.77;;;2.27;;
20144;SDS011;10233;50.814;6.590;2023-11-21T00:21:44;4.82;;;2.08;;
20144;SDS011;10233;50.814;6.590;2023-11-21T00:22:45;7.85;;;2.40;;
20144;SDS011;10233;50.814;6.590;2023-11-21T00:23:45;8.77;;;2.00;;
20144;SDS011;10233;50.814;6.590;2023-11-21T00:24:46;4.70;;;1.92;;
20144;SDS011;10233;50.814;6.590;2023-11-21T00:25:47;5.72;;;2.10;;
20144;SDS011;10233;50.814;6.590;2023-11-21T00:26:47;4.00;;;2.33;;
20144;SDS011;10233;50.814;6.590;2023-11-21T00:27:49;3.85;;;2.10;;
20144;SDS011;10233;50.814;6.590;2023-11-21T00:28:50;4.13;;;2.47;;
20144;SDS011;10233;50.814;6.590;2023-11-21T00:29:51;4.35;;;2.33;;
20144;SDS011;10233;50.814;6.590;2023-11-21T00:30:51;5.73;;;2.33;;
20144;SDS011;10233;50.814;6.590;2023-11-21T00:31:52;7.38;;;2.67;;
20144;SDS011;10233;50.814;6.590;2023-11-21T00:32:53;5.80;;;2.70;;
20144;SDS011;10233;50.814;6.590;2023-11-21T00:33:54;7.95;;;2.90;;
20144;SDS011;10233;50.814;6.590;2023-11-21T00:34:55;5.63;;;2.53;;
20144;SDS011;10233;50.814;6.590;2023-11-21T00:35:56;5.80;;;2.80;;
20144;SDS011;10233;50.814;6.590;2023-11-21T00:36:56;4.37;;;2.40;;
20144;SDS011;10233;50.814;6.590;2023-11-21T00:37:57;6.22;;;2.63;;
20144;SDS011;10233;50.814;6.590;2023-11-21T00:38:59;9.65;;;3.17;;
20144;SDS011;10233;50.814;6.590;2023-11-21T00:40:00;5.68;;;3.00;;
20144;SDS011;10233;50.814;6.590;2023-11-21T00:41:03;5.82;;;3.17;;
20144;SDS011;10233;50.814;6.590;2023-11-21T00:42:04;6.93;;;3.58;;
20144;SDS011;10233;50.814;6.590;2023-11-21T00:43:05;6.35;;;3.15;;
20144;SDS011;10233;50.814;6.590;2023-11-21T00:44:05;14.57;;;3.70;;
20144;SDS011;10233;50.814;6.590;2023-11-21T00:45:06;7.72;;;3.72;;
20144;SDS011;10233;50.814;6.590;2023-11-21T00:46:07;6.20;;;3.47;;
20144;SDS011;10233;50.814;6.590;2023-11-21T00:47:08;7.57;;;3.55;;
20144;SDS011;10233;50.814;6.590;2023-11-21T00:48:08;6.37;;;3.27;;
20144;SDS011;10233;50.814;6.590;2023-11-21T00:49:09;7.50;;;3.58;;
20144;SDS011;10233;50.814;6.590;2023-11-21T00:50:09;7.67;;;3.37;;
20144;SDS011;10233;50.814;6.590;2023-11-21T00:51:10;7.93;;;3.50;;
20144;SDS011;10233;50.814;6.590;2023-11-21T00:52:11;6.57;;;3.70;;
20144;SDS011;10233;50.814;6.590;2023-11-21T00:53:11;8.20;;;3.73;;
20144;SDS011;10233;50.814;6.590;2023-11-21T00:54:12;12.98;;;4.10;;
20144;SDS011;10233;50.814;6.590;2023-11-21T00:55:12;10.33;;;3.70;;
20144;SDS011;10233;50.814;6.590;2023-11-21T00:56:13;6.97;;;3.78;;
20144;SDS011;10233;50.814;6.590;2023-11-21T00:57:16;9.67;;;4.03;;
20144;SDS011;10233;50.814;6.590;2023-11-21T00:58:16;8.33;;;3.37;;
20144;SDS011;10233;50.814;6.590;2023-11-21T00:59:16;9.43;;;3.90;;
20144;SDS011;10233;50.814;6.590;2023-11-21T01:00:17;11.05;;;3.95;;
20144;SDS011;10233;50.814;6.590;2023-11-21T01:01:18;9.50;;;3.60;;
20144;SDS011;10233;50.814;6.590;2023-11-21T01:02:19;7.95;;;4.35;;
20144;SDS011;10233;50.814;6.590;2023-11-21T01:03:19;9.00;;;4.07;;
20144;SDS011;10233;50.814;6.590;2023-11-21T01:04:20;8.67;;;4.23;;
20144;SDS011;10233;50.814;6.590;2023-11-21T01:05:20;9.43;;;4.10;;
20144;SDS011;10233;50.814;6.590;2023-11-21T01:06:21;9.20;;;3.90;;
20144;SDS011;10233;50.814;6.590;2023-11-21T01:07:22;11.00;;;3.77;;
20144;SDS011;10233;50.814;6.590;2023-11-21T01:08:25;11.30;;;3.90;;
20144;SDS011;10233;50.814;6.590;2023-11-21T01:09:26;10.37;;;4.37;;
20144;SDS011;10233;50.814;6.590;2023-11-21T01:10:28;9.43;;;3.90;;
20144;SDS011;10233;50.814;6.590;2023-11-21T01:11:28;8.63;;;3.83;;
20144;SDS011;10233;50.814;6.590;2023-11-21T01:12:29;9.07;;;4.00;;
20144;SDS011;10233;50.814;6.590;2023-11-21T01:13:29;9.07;;;3.60;;
20144;SDS011;10233;50.814;6.590;2023-11-21T01:14:30;8.60;;;3.90;;
20144;SDS011;10233;50.814;6.590;2023-11-21T01:15:31;10.13;;;4.65;;
20144;SDS011;10233;50.814;6.590;2023-11-21T01:16:32;10.80;;;4.18;;
20144;SDS011;10233;50.814;6.590;2023-11-21T01:17:33;11.03;;;4.70;;
20144;SDS011;10233;50.814;6.590;2023-11-21T01:18:42;9.02;;;4.13;;
20144;SDS011;10233;50.814;6.590;2023-11-21T01:19:51;10.02;;;4.15;;
20144;SDS011;10233;50.814;6.590;2023-11-21T01:20:52;11.13;;;5.10;;
20144;SDS011;10233;50.814;6.590;2023-11-21T01:21:53;11.73;;;4.88;;
20144;SDS011;10233;50.814;6.590;2023-11-21T01:22:54;8.90;;;4.90;;
20144;SDS011;10233;50.814;6.590;2023-11-21T01:23:55;11.93;;;5.00;;
20144;SDS011;10233;50.814;6.590;2023-11-21T01:24:55;10.52;;;4.93;;
20144;SDS011;10233;50.814;6.590;2023-11-21T01:25:56;12.47;;;4.90;;
20144;SDS011;10233;50.814;6.590;2023-11-21T01:26:57;9.07;;;4.95;;
20144;SDS011;10233;50.814;6.590;2023-11-21T01:27:58;9.37;;;4.77;;
20144;SDS011;10233;50.814;6.590;2023-11-21T01:28:59;12.02;;;4.88;;
20144;SDS011;10233;50.814;6.590;2023-11-21T01:30:01;11.07;;;5.32;;
20144;SDS011;10233;50.814;6.590;2023-11-21T01:31:02;10.80;;;5.00;;
20144;SDS011;10233;50.814;6.590;2023-11-21T01:32:03;8.38;;;4.78;;
20144;SDS011;10233;50.814;6.590;2023-11-21T01:33:04;10.40;;;4.90;;
20144;SDS011;10233;50.814;6.590;2023-11-21T01:34:05;11.38;;;4.72;;
20144;SDS011;10233;50.814;6.590;2023-11-21T01:35:05;8.40;;;4.53;;
20144;SDS011;10233;50.814;6.590;2023-11-21T01:36:06;9.88;;;4.32;;
20144;SDS011;10233;50.814;6.590;2023-11-21T01:37:07;10.75;;;4.60;;
20144;SDS011;10233;50.814;6.590;2023-11-21T01:38:09;10.88;;;5.00;;
20144;SDS011;10233;50.814;6.590;2023-11-21T01:39:09;9.52;;;4.70;;
20144;SDS011;10233;50.814;6.590;2023-11-21T01:40:15;10.52;;;4.90;;
20144;SDS011;10233;50.814;6.590;2023-11-21T01:41:16;12.50;;;4.60;;
20144;SDS011;10233;50.814;6.590;2023-11-21T01:42:16;9.93;;;4.53;;
20144;SDS011;10233;50.814;6.590;2023-11-21T01:43:19;9.50;;;4.82;;
20144;SDS011;10233;50.814;6.590;2023-11-21T01:44:19;9.65;;;4.60;;
20144;SDS011;10233;50.814;6.590;2023-11-21T01:45:20;12.27;;;4.57;;
20144;SDS011;10233;50.814;6.590;2023-11-21T01:46:21;12.07;;;4.73;;
20144;SDS011;10233;50.814;6.590;2023-11-21T01:47:22;9.75;;;4.90;;
20144;SDS011;10233;50.814;6.590;2023-11-21T01:48:23;8.37;;;4.70;;
20144;SDS011;10233;50.814;6.590;2023-11-21T01:49:24;10.27;;;4.80;;
20144;SDS011;10233;50.814;6.590;2023-11-21T01:50:25;10.98;;;5.13;;
20144;SDS011;10233;50.814;6.590;2023-11-21T01:51:25;13.07;;;5.20;;
20144;SDS011;10233;50.814;6.590;2023-11-21T01:52:26;12.70;;;5.50;;
20144;SDS011;10233;50.814;6.590;2023-11-21T01:53:29;11.43;;;5.70;;
20144;SDS011;10233;50.814;6.590;2023-11-21T01:54:30;13.60;;;4.97;;
20144;SDS011;10233;50.814;6.590;2023-11-21T01:55:34;14.20;;;5.10;;
20144;SDS011;10233;50.814;6.590;2023-11-21T01:56:34;11.70;;;5.68;;
20144;SDS011;10233;50.814;6.590;2023-11-21T01:57:36;10.25;;;4.90;;
20144;SDS011;10233;50.814;6.590;2023-11-21T01:58:40;13.35;;;5.68;;
20144;SDS011;10233;50.814;6.590;2023-11-21T01:59:41;11.13;;;5.15;;
20144;SDS011;10233;50.814;6.590;2023-11-21T02:00:43;11.13;;;5.22;;
20144;SDS011;10233;50.814;6.590;2023-11-21T02:01:44;10.67;;;5.30;;
20144;SDS011;10233;50.814;6.590;2023-11-21T02:02:47;11.00;;;5.03;;
20144;SDS011;10233;50.814;6.590;2023-11-21T02:03:48;11.70;;;5.47;;
20144;SDS011;10233;50.814;6.590;2023-11-21T02:04:49;15.35;;;5.55;;
20144;SDS011;10233;50.814;6.590;2023-11-21T02:05:49;11.87;;;5.37;;
20144;SDS011;10233;50.814;6.590;2023-11-21T02:06:50;9.63;;;5.10;;
20144;SDS011;10233;50.814;6.590;2023-11-21T02:07:51;14.02;;;5.45;;
20144;SDS011;10233;50.814;6.590;2023-11-21T02:08:52;11.82;;;5.18;;
20144;SDS011;10233;50.814;6.590;2023-11-21T02:09:53;14.38;;;5.68;;
20144;SDS011;10233;50.814;6.590;2023-11-21T02:10:53;13.95;;;5.63;;
20144;SDS011;10233;50.814;6.590;2023-11-21T02:11:54;15.70;;;4.90;;
20144;SDS011;10233;50.814;6.590;2023-11-21T02:12:54;11.00;;;5.32;;
20144;SDS011;10233;50.814;6.590;2023-11-21T02:13:58;11.98;;;5.53;;
20144;SDS011;10233;50.814;6.590;2023-11-21T02:14:59;10.23;;;4.97;;
20144;SDS011;10233;50.814;6.590;2023-11-21T02:16:02;9.98;;;5.20;;
20144;SDS011;10233;50.814;6.590;2023-11-21T02:17:02;11.90;;;5.27;;
20144;SDS011;10233;50.814;6.590;2023-11-21T02:18:05;12.23;;;5.13;;
20144;SDS011;10233;50.814;6.590;2023-11-21T02:19:06;10.57;;;4.97;;
20144;SDS011;10233;50.814;6.590;2023-11-21T02:20:13;10.40;;;5.05;;
20144;SDS011;10233;50.814;6.590;2023-11-21T02:21:17;9.95;;;4.85;;
20144;SDS011;10233;50.814;6.590;2023-11-21T02:22:19;10.07;;;4.85;;
20144;SDS011;10233;50.814;6.590;2023-11-21T02:23:20;13.13;;;5.20;;
20144;SDS011;10233;50.814;6.590;2023-11-21T02:24:21;10.57;;;4.63;;
20144;SDS011;10233;50.814;6.590;2023-11-21T02:25:22;10.57;;;5.15;;
20144;SDS011;10233;50.814;6.590;2023-11-21T02:26:30;10.48;;;5.28;;
20144;SDS011;10233;50.814;6.590;2023-11-21T02:27:30;10.73;;;5.60;;
20144;SDS011;10233;50.814;6.590;2023-11-21T02:28:31;14.48;;;5.10;;
20144;SDS011;10233;50.814;6.590;2023-11-21T02:29:33;12.95;;;5.45;;
20144;SDS011;10233;50.814;6.590;2023-11-21T02:30:34;12.73;;;5.30;;
20144;SDS011;10233;50.814;6.590;2023-11-21T02:31:35;11.07;;;5.47;;
20144;SDS011;10233;50.814;6.590;2023-11-21T02:32:37;11.65;;;5.82;;
20144;SDS011;10233;50.814;6.590;2023-11-21T02:33:40;13.30;;;6.07;;
20144;SDS011;10233;50.814;6.590;2023-11-21T02:34:40;9.40;;;5.37;;
20144;SDS011;10233;50.814;6.590;2023-11-21T02:35:40;10.57;;;5.73;;
20144;SDS011;10233;50.814;6.590;2023-11-21T02:36:44;12.52;;;5.43;;
20144;SDS011;10233;50.814;6.590;2023-11-21T02:37:46;9.32;;;5.03;;
20144;SDS011;10233;50.814;6.590;2023-11-21T02:38:46;11.48;;;5.63;;
20144;SDS011;10233;50.814;6.590;2023-11-21T02:39:47;11.68;;;6.05;;
20144;SDS011;10233;50.814;6.590;2023-11-21T02:40:47;15.63;;;5.60;;
20144;SDS011;10233;50.814;6.590;2023-11-21T02:41:49;13.70;;;6.00;;
20144;SDS011;10233;50.814;6.590;2023-11-21T02:42:50;11.55;;;5.13;;
20144;SDS011;10233;50.814;6.590;2023-11-21T02:43:53;11.73;;;5.75;;
20144;SDS011;10233;50.814;6.590;2023-11-21T02:44:55;12.10;;;5.27;;
20144;SDS011;10233;50.814;6.590;2023-11-21T02:45:57;12.40;;;5.97;;
20144;SDS011;10233;50.814;6.590;2023-11-21T02:46:57;10.37;;;5.63;;
20144;SDS011;10233;50.814;6.590;2023-11-21T02:47:58;13.80;;;5.60;;
20144;SDS011;10233;50.814;6.590;2023-11-21T02:49:02;11.48;;;5.47;;
20144;SDS011;10233;50.814;6.590;2023-11-21T02:50:10;10.13;;;4.63;;
20144;SDS011;10233;50.814;6.590;2023-11-21T02:51:10;13.70;;;5.68;;
20144;SDS011;10233;50.814;6.590;2023-11-21T02:52:11;10.77;;;5.07;;
20144;SDS011;10233;50.814;6.590;2023-11-21T02:53:11;13.37;;;5.50;;
20144;SDS011;10233;50.814;6.590;2023-11-21T02:54:12;10.45;;;5.18;;
20144;SDS011;10233;50.814;6.590;2023-11-21T02:55:13;11.33;;;6.00;;
20144;SDS011;10233;50.814;6.590;2023-11-21T02:56:13;10.52;;;4.65;;
20144;SDS011;10233;50.814;6.590;2023-11-21T02:57:14;12.83;;;5.50;;
20144;SDS011;10233;50.814;6.590;2023-11-21T02:58:14;15.13;;;5.57;;
20144;SDS011;10233;50.814;6.590;2023-11-21T02:59:15;11.57;;;5.43;;
20144;SDS011;10233;50.814;6.590;2023-11-21T03:00:16;12.15;;;5.15;;
20144;SDS011;10233;50.814;6.590;2023-11-21T03:01:16;15.63;;;6.15;;
20144;SDS011;10233;50.814;6.590;2023-11-21T03:02:17;12.80;;;5.53;;
20144;SDS011;10233;50.814;6.590;2023-11-21T03:03:18;9.27;;;5.28;;
20144;SDS011;10233;50.814;6.590;2023-11-21T03:04:18;13.57;;;5.30;;
20144;SDS011;10233;50.814;6.590;2023-11-21T03:05:19;11.82;;;5.38;;
20144;SDS011;10233;50.814;6.590;2023-11-21T03:06:20;11.83;;;5.60;;
20144;SDS011;10233;50.814;6.590;2023-11-21T03:07:21;11.73;;;5.18;;
20144;SDS011;10233;50.814;6.590;2023-11-21T03:08:21;12.18;;;4.97;;
20144;SDS011;10233;50.814;6.590;2023-11-21T03:09:22;12.73;;;5.50;;
20144;SDS011;10233;50.814;6.590;2023-11-21T03:10:22;11.63;;;5.40;;
20144;SDS011;10233;50.814;6.590;2023-11-21T03:11:23;13.05;;;4.82;;
20144;SDS011;10233;50.814;6.590;2023-11-21T03:12:24;12.00;;;5.80;;
20144;SDS011;10233;50.814;6.590;2023-11-21T03:13:26;13.45;;;6.25;;
20144;SDS011;10233;50.814;6.590;2023-11-21T03:14:28;12.65;;;6.13;;
20144;SDS011;10233;50.814;6.590;2023-11-21T03:15:28;12.02;;;6.15;;
20144;SDS011;10233;50.814;6.590;2023-11-21T03:16:29;13.87;;;6.30;;
20144;SDS011;10233;50.814;6.590;2023-11-21T03:17:29;13.97;;;7.20;;
20144;SDS011;10233;50.814;6.590;2023-11-21T03:18:30;17.47;;;7.20;;
20144;SDS011;10233;50.814;6.590;2023-11-21T03:19:31;16.92;;;7.90;;
20144;SDS011;10233;50.814;6.590;2023-11-21T03:20:32;15.43;;;7.00;;
20144;SDS011;10233;50.814;6.590;2023-11-21T03:21:32;18.30;;;7.20;;
20144;SDS011;10233;50.814;6.590;2023-11-21T03:22:32;15.38;;;7.10;;
20144;SDS011;10233;50.814;6.590;2023-11-21T03:23:33;18.80;;;6.77;;
20144;SDS011;10233;50.814;6.590;2023-11-21T03:24:34;17.15;;;7.15;;
20144;SDS011;10233;50.814;6.590;2023-11-21T03:25:34;17.00;;;6.82;;
20144;SDS011;10233;50.814;6.590;2023-11-21T03:26:35;17.00;;;7.93;;
20144;SDS011;10233;50.814;6.590;2023-11-21T03:27:37;15.73;;;6.97;;
20144;SDS011;10233;50.814;6.590;2023-11-21T03:28:39;14.65;;;7.25;;
20144;SDS011;10233;50.814;6.590;2023-11-21T03:29:39;17.27;;;7.93;;
20144;SDS011;10233;50.814;6.590;2023-11-21T03:30:40;18.58;;;8.13;;
20144;SDS011;10233;50.814;6.590;2023-11-21T03:31:40;15.10;;;7.37;;
20144;SDS011;10233;50.814;6.590;2023-11-21T03:32:41;18.77;;;7.55;;
20144;SDS011;10233;50.814;6.590;2023-11-21T03:33:42;18.08;;;7.80;;
20144;SDS011;10233;50.814;6.590;2023-11-21T03:34:55;16.17;;;7.37;;
20144;SDS011;10233;50.814;6.590;2023-11-21T03:35:57;15.60;;;7.65;;
20144;SDS011;10233;50.814;6.590;2023-11-21T03:36:59;19.27;;;7.47;;
20144;SDS011;10233;50.814;6.590;2023-11-21T03:37:59;14.83;;;7.50;;
20144;SDS011;10233;50.814;6.590;2023-11-21T03:38:59;19.60;;;7.85;;
20144;SDS011;10233;50.814;6.590;2023-11-21T03:40:00;19.83;;;8.57;;
20144;SDS011;10233;50.814;6.590;2023-11-21T03:41:00;15.68;;;7.57;;
20144;SDS011;10233;50.814;6.590;2023-11-21T03:42:02;16.75;;;6.95;;
20144;SDS011;10233;50.814;6.590;2023-11-21T03:43:03;17.13;;;7.60;;
20144;SDS011;10233;50.814;6.590;2023-11-21T03:44:03;20.27;;;8.13;;
20144;SDS011;10233;50.814;6.590;2023-11-21T03:45:04;18.70;;;7.50;;
20144;SDS011;10233;50.814;6.590;2023-11-21T03:46:08;18.88;;;7.85;;
20144;SDS011;10233;50.814;6.590;2023-11-21T03:47:10;14.85;;;7.55;;
20144;SDS011;10233;50.814;6.590;2023-11-21T03:48:11;21.13;;;7.88;;
20144;SDS011;10233;50.814;6.590;2023-11-21T03:49:12;17.23;;;7.65;;
20144;SDS011;10233;50.814;6.590;2023-11-21T03:50:14;14.32;;;7.13;;
20144;SDS011;10233;50.814;6.590;2023-11-21T03:51:17;16.17;;;7.35;;
20144;SDS011;10233;50.814;6.590;2023-11-21T03:52:18;13.65;;;7.32;;
20144;SDS011;10233;50.814;6.590;2023-11-21T03:53:18;16.33;;;7.60;;
20144;SDS011;10233;50.814;6.590;2023-11-21T03:54:18;16.85;;;7.63;;
20144;SDS011;10233;50.814;6.590;2023-11-21T03:55:19;14.87;;;7.50;;
20144;SDS011;10233;50.814;6.590;2023-11-21T03:56:19;18.23;;;8.05;;
20144;SDS011;10233;50.814;6.590;2023-11-21T03:57:21;13.38;;;7.05;;
20144;SDS011;10233;50.814;6.590;2023-11-21T03:58:22;15.87;;;6.63;;
20144;SDS011;10233;50.814;6.590;2023-11-21T03:59:22;14.07;;;6.82;;
20144;SDS011;10233;50.814;6.590;2023-11-21T04:00:24;14.93;;;7.15;;
20144;SDS011;10233;50.814;6.590;2023-11-21T04:01:26;18.50;;;7.45;;
20144;SDS011;10233;50.814;6.590;2023-11-21T04:02:27;15.57;;;6.73;;
20144;SDS011;10233;50.814;6.590;2023-11-21T04:03:28;14.35;;;7.25;;
20144;SDS011;10233;50.814;6.590;2023-11-21T04:04:28;17.27;;;6.87;;
20144;SDS011;10233;50.814;6.590;2023-11-21T04:05:29;13.83;;;5.57;;
20144;SDS011;10233;50.814;6.590;2023-11-21T04:06:29;14.97;;;5.77;;
20144;SDS011;10233;50.814;6.590;2023-11-21T04:07:30;12.98;;;6.07;;
20144;SDS011;10233;50.814;6.590;2023-11-21T04:08:31;10.35;;;4.97;;
20144;SDS011;10233;50.814;6.590;2023-11-21T04:09:33;12.00;;;5.43;;
20144;SDS011;10233;50.814;6.590;2023-11-21T04:10:34;12.33;;;5.00;;
20144;SDS011;10233;50.814;6.590;2023-11-21T04:11:34;10.05;;;4.57;;
20144;SDS011;10233;50.814;6.590;2023-11-21T04:12:35;9.20;;;4.70;;
20144;SDS011;10233;50.814;6.590;2023-11-21T04:13:36;12.70;;;5.32;;
20144;SDS011;10233;50.814;6.590;2023-11-21T04:14:36;12.23;;;5.47;;
20144;SDS011;10233;50.814;6.590;2023-11-21T04:15:37;14.80;;;5.10;;
20144;SDS011;10233;50.814;6.590;2023-11-21T04:16:37;10.43;;;4.87;;
20144;SDS011;10233;50.814;6.590;2023-11-21T04:17:38;11.18;;;4.35;;
20144;SDS011;10233;50.814;6.590;2023-11-21T04:18:38;12.20;;;4.93;;
20144;SDS011;10233;50.814;6.590;2023-11-21T04:19:39;11.60;;;5.33;;
20144;SDS011;10233;50.814;6.590;2023-11-21T04:20:39;10.10;;;5.28;;
20144;SDS011;10233;50.814;6.590;2023-11-21T04:21:41;11.77;;;4.80;;
20144;SDS011;10233;50.814;6.590;2023-11-21T04:22:42;13.27;;;4.85;;
20144;SDS011;10233;50.814;6.590;2023-11-21T04:23:44;12.65;;;5.72;;
20144;SDS011;10233;50.814;6.590;2023-11-21T04:24:44;11.83;;;5.00;;
20144;SDS011;10233;50.814;6.590;2023-11-21T04:25:45;13.52;;;5.03;;
20144;SDS011;10233;50.814;6.590;2023-11-21T04:26:45;10.93;;;4.70;;
20144;SDS011;10233;50.814;6.590;2023-11-21T04:27:46;12.23;;;5.25;;
20144;SDS011;10233;50.814;6.590;2023-11-21T04:28:46;13.13;;;5.10;;
20144;SDS011;10233;50.814;6.590;2023-11-21T04:29:46;13.03;;;5.80;;
20144;SDS011;10233;50.814;6.590;2023-11-21T04:30:47;11.63;;;5.07;;
20144;SDS011;10233;50.814;6.590;2023-11-21T04:31:47;15.37;;;5.57;;
20144;SDS011;10233;50.814;6.590;2023-11-21T04:32:49;11.02;;;5.50;;
20144;SDS011;10233;50.814;6.590;2023-11-21T04:33:50;12.17;;;5.30;;
20144;SDS011;10233;50.814;6.590;2023-11-21T04:34:51;10.97;;;5.33;;
20144;SDS011;10233;50.814;6.590;2023-11-21T04:35:51;15.40;;;5.72;;
20144;SDS011;10233;50.814;6.590;2023-11-21T04:36:52;16.57;;;5.83;;
20144;SDS011;10233;50.814;6.590;2023-11-21T04:37:52;14.20;;;5.10;;
20144;SDS011;10233;50.814;6.590;2023-11-21T04:38:57;12.27;;;5.03;;
20144;SDS011;10233;50.814;6.590;2023-11-21T04:39:57;15.07;;;5.47;;
20144;SDS011;10233;50.814;6.590;2023-11-21T04:40:58;12.35;;;5.38;;
20144;SDS011;10233;50.814;6.590;2023-11-21T04:41:58;15.87;;;6.13;;
20144;SDS011;10233;50.814;6.590;2023-11-21T04:42:59;14.95;;;5.18;;
20144;SDS011;10233;50.814;6.590;2023-11-21T04:43:59;11.77;;;5.27;;
20144;SDS011;10233;50.814;6.590;2023-11-21T04:45:05;12.75;;;5.68;;
20144;SDS011;10233;50.814;6.590;2023-11-21T04:46:09;11.82;;;5.10;;
20144;SDS011;10233;50.814;6.590;2023-11-21T04:47:10;14.37;;;5.07;;
20144;SDS011;10233;50.814;6.590;2023-11-21T04:48:10;11.63;;;4.97;;
20144;SDS011;10233;50.814;6.590;2023-11-21T04:49:11;11.55;;;4.88;;
20144;SDS011;10233;50.814;6.590;2023-11-21T04:50:11;13.57;;;5.50;;
20144;SDS011;10233;50.814;6.590;2023-11-21T04:51:12;12.18;;;5.70;;
20144;SDS011;10233;50.814;6.590;2023-11-21T04:52:12;11.90;;;5.47;;
20144;SDS011;10233;50.814;6.590;2023-11-21T04:53:13;13.37;;;4.87;;
20144;SDS011;10233;50.814;6.590;2023-11-21T04:54:14;11.80;;;4.90;;
20144;SDS011;10233;50.814;6.590;2023-11-21T04:55:15;13.32;;;5.22;;
20144;SDS011;10233;50.814;6.590;2023-11-21T04:56:15;15.37;;;4.93;;
20144;SDS011;10233;50.814;6.590;2023-11-21T04:57:18;8.60;;;5.22;;
20144;SDS011;10233;50.814;6.590;2023-11-21T04:58:19;10.65;;;4.45;;
20144;SDS011;10233;50.814;6.590;2023-11-21T04:59:20;12.02;;;4.93;;
20144;SDS011;10233;50.814;6.590;2023-11-21T05:00:24;12.13;;;5.40;;
20144;SDS011;10233;50.814;6.590;2023-11-21T05:01:25;12.20;;;5.35;;
20144;SDS011;10233;50.814;6.590;2023-11-21T05:02:25;10.43;;;5.23;;
20144;SDS011;10233;50.814;6.590;2023-11-21T05:03:26;9.18;;;4.85;;
20144;SDS011;10233;50.814;6.590;2023-11-21T05:04:26;15.07;;;5.07;;
20144;SDS011;10233;50.814;6.590;2023-11-21T05:05:27;11.88;;;4.68;;
20144;SDS011;10233;50.814;6.590;2023-11-21T05:06:27;11.40;;;5.20;;
20144;SDS011;10233;50.814;6.590;2023-11-21T05:07:28;14.77;;;5.27;;
20144;SDS011;10233;50.814;6.590;2023-11-21T05:34:13;11.63;;;5.13;;
20144;SDS011;10233;50.814;6.590;2023-11-21T05:35:13;11.50;;;4.88;;
20144;SDS011;10233;50.814;6.590;2023-11-21T05:48:16;13.52;;;5.43;;
20144;SDS011;10233;50.814;6.590;2023-11-21T05:49:16;9.43;;;4.80;;
20144;SDS011;10233;50.814;6.590;2023-11-21T05:50:17;11.80;;;5.17;;
20144;SDS011;10233;50.814;6.590;2023-11-21T05:51:18;12.15;;;5.68;;
20144;SDS011;10233;50.814;6.590;2023-11-21T05:52:18;12.27;;;5.68;;
20144;SDS011;10233;50.814;6.590;2023-11-21T05:53:20;13.52;;;5.10;;
20144;SDS011;10233;50.814;6.590;2023-11-21T05:54:21;12.43;;;5.30;;
20144;SDS011;10233;50.814;6.590;2023-11-21T05:55:23;12.75;;;5.38;;
20144;SDS011;10233;50.814;6.590;2023-11-21T05:56:25;10.82;;;4.72;;
20144;SDS011;10233;50.814;6.590;2023-11-21T05:57:26;12.40;;;4.80;;
20144;SDS011;10233;50.814;6.590;2023-11-21T05:58:26;16.70;;;5.88;;
20144;SDS011;10233;50.814;6.590;2023-11-21T05:59:27;12.40;;;5.40;;
20144;SDS011;10233;50.814;6.590;2023-11-21T06:00:27;13.90;;;6.10;;
20144;SDS011;10233;50.814;6.590;2023-11-21T06:01:28;12.23;;;5.23;;
20144;SDS011;10233;50.814;6.590;2023-11-21T06:02:29;13.27;;;6.45;;
20144;SDS011;10233;50.814;6.590;2023-11-21T06:03:29;12.80;;;5.33;;
20144;SDS011;10233;50.814;6.590;2023-11-21T06:04:29;13.13;;;5.97;;
20144;SDS011;10233;50.814;6.590;2023-11-21T06:05:31;12.18;;;5.35;;
20144;SDS011;10233;50.814;6.590;2023-11-21T06:06:32;12.55;;;5.30;;
20144;SDS011;10233;50.814;6.590;2023-11-21T06:07:32;13.80;;;5.33;;
20144;SDS011;10233;50.814;6.590;2023-11-21T06:08:33;13.18;;;5.38;;
20144;SDS011;10233;50.814;6.590;2023-11-21T06:09:34;14.80;;;6.25;;
20144;SDS011;10233;50.814;6.590;2023-11-21T06:10:34;33.30;;;16.40;;
20144;SDS011;10233;50.814;6.590;2023-11-21T06:11:35;15.60;;;7.63;;
20144;SDS011;10233;50.814;6.590;2023-11-21T06:12:35;10.13;;;5.22;;
20144;SDS011;10233;50.814;6.590;2023-11-21T06:13:36;13.47;;;5.67;;
20144;SDS011;10233;50.814;6.590;2023-11-21T06:14:37;14.57;;;5.50;;
20144;SDS011;10233;50.814;6.590;2023-11-21T06:15:37;11.77;;;6.10;;
20144;SDS011;10233;50.814;6.590;2023-11-21T06:16:38;14.38;;;7.22;;
20144;SDS011;10233;50.814;6.590;2023-11-21T06:17:40;9.13;;;5.07;;
20144;SDS011;10233;50.814;6.590;2023-11-21T06:18:42;11.48;;;5.57;;
20144;SDS011;10233;50.814;6.590;2023-11-21T06:19:43;11.88;;;5.38;;
20144;SDS011;10233;50.814;6.590;2023-11-21T06:20:46;10.57;;;4.72;;
20144;SDS011;10233;50.814;6.590;2023-11-21T06:21:46;11.23;;;5.20;;
20144;SDS011;10233;50.814;6.590;2023-11-21T06:22:50;11.85;;;5.43;;
20144;SDS011;10233;50.814;6.590;2023-11-21T06:23:51;12.40;;;5.75;;
20144;SDS011;10233;50.814;6.590;2023-11-21T06:24:53;14.38;;;5.82;;
20144;SDS011;10233;50.814;6.590;2023-11-21T06:25:53;10.07;;;5.40;;
20144;SDS011;10233;50.814;6.590;2023-11-21T06:26:53;13.40;;;6.40;;
20144;SDS011;10233;50.814;6.590;2023-11-21T06:27:54;14.38;;;6.05;;
20144;SDS011;10233;50.814;6.590;2023-11-21T06:28:55;13.57;;;6.20;;
20144;SDS011;10233;50.814;6.590;2023-11-21T06:29:55;17.63;;;6.47;;
20144;SDS011;10233;50.814;6.590;2023-11-21T06:30:56;11.95;;;5.43;;
20144;SDS011;10233;50.814;6.590;2023-11-21T06:32:05;13.00;;;5.63;;
20144;SDS011;10233;50.814;6.590;2023-11-21T06:33:05;12.87;;;5.93;;
20144;SDS011;10233;50.814;6.590;2023-11-21T06:34:07;14.73;;;5.80;;
20144;SDS011;10233;50.814;6.590;2023-11-21T06:35:09;12.68;;;5.22;;
20144;SDS011;10233;50.814;6.590;2023-11-21T06:36:10;12.43;;;5.53;;
20144;SDS011;10233;50.814;6.590;2023-11-21T06:37:12;15.40;;;6.00;;
20144;SDS011;10233;50.814;6.590;2023-11-21T06:38:13;14.00;;;5.93;;
20144;SDS011;10233;50.814;6.590;2023-11-21T06:39:13;22.67;;;8.53;;
20144;SDS011;10233;50.814;6.590;2023-11-21T06:40:15;10.77;;;5.07;;
20144;SDS011;10233;50.814;6.590;2023-11-21T06:41:15;11.07;;;4.90;;
20144;SDS011;10233;50.814;6.590;2023-11-21T06:42:16;10.43;;;4.97;;